Terminal Aerodrome Forecast
Issued by NWS Corpus Christi, TX

Home | Current Version | Previous Version | Text Only | Print | Product List | Glossary On
Versions: 1 2 3 4 5 6 7 8 9 10 11 12 13 14 15 16 17 18
000
FTUS44 KCRP 302334
TAFCRP
TAF
KCRP 302334Z 0100/0124 17011KT P6SM FEW025 BKN120
     FM011000 15007KT P6SM VCSH SCT015
     FM011500 16016G22KT P6SM VCTS SCT035CB
     FM012000 16016G22KT P6SM FEW025 SCT035 SCT150=

USA.gov is the U.S. government's official web portal to all federal, state and local government web resources and services.